Time;durP1;ratioP1;P1;durP2;ratioP2;P2;SDS_P1;SDS_P2;PMS_P1;PMS_P2;Temp;Humidity;BMP_temperature;BMP_pressure;BME280_temperature;BME280_humidity;BME280_pressure;Samples;Min_cycle;Max_cycle;Signal;HPM_P1;HPM_P2
2021/03/30 00:00:35;;;;;;;2.92;1.83;;;;;;;5.30;63.70;94617.88;5099765;28;20027;-46
2021/03/30 00:03:00;;;;;;;0.88;0.88;;;;;;;5.36;63.81;94617.91;5103135;28;20015;-49
2021/03/30 00:05:26;;;;;;;1.95;0.98;;;;;;;5.19;64.26;94617.00;5103481;28;20026;-46
2021/03/30 00:07:51;;;;;;;1.30;1.00;;;;;;;5.15;64.76;94606.28;5101415;28;20023;-46
2021/03/30 00:10:19;;;;;;;6.28;1.58;;;;;;;5.28;65.32;94603.88;5101117;28;20377;-49
2021/03/30 00:12:44;;;;;;;2.35;1.77;;;;;;;5.39;63.78;94597.75;5093040;28;20504;-48
2021/03/30 00:15:12;;;;;;;3.47;3.05;;;;;;;5.33;62.87;94594.97;5093015;28;20030;-48
2021/03/30 00:17:38;;;;;;;4.68;3.00;;;;;;;5.00;64.07;94593.97;5092902;28;20393;-49
2021/03/30 00:20:08;;;;;;;1.80;1.70;;;;;;;4.58;65.37;94576.19;5092442;28;20055;-47
2021/03/30 00:22:33;;;;;;;0.65;0.65;;;;;;;4.43;65.68;94586.47;5091294;28;20031;-46
2021/03/30 00:24:59;;;;;;;0.70;0.70;;;;;;;4.21;67.16;94583.47;5092639;28;20039;-48
2021/03/30 00:27:24;;;;;;;0.50;0.50;;;;;;;4.16;67.11;94581.44;5092484;28;20031;-50
2021/03/30 00:29:50;;;;;;;0.60;0.60;;;;;;;3.95;68.19;94574.47;5103058;28;20034;-48
2021/03/30 00:32:15;;;;;;;1.70;1.65;;;;;;;4.10;66.37;94575.16;5112753;28;20032;-47
2021/03/30 00:34:41;;;;;;;0.43;0.43;;;;;;;4.34;65.21;94572.19;5112712;28;20072;-45
2021/03/30 00:37:07;;;;;;;0.20;0.20;;;;;;;4.11;65.95;94576.66;5112806;28;20020;-48
2021/03/30 00:39:32;;;;;;;0.60;0.60;;;;;;;3.99;65.63;94574.25;5112742;28;20419;-47
2021/03/30 00:41:58;;;;;;;0.20;0.20;;;;;;;4.07;65.22;94567.16;5112597;28;20138;-48
2021/03/30 00:44:23;;;;;;;0.20;0.20;;;;;;;4.13;64.95;94562.50;5112331;28;20123;-50
2021/03/30 00:46:49;;;;;;;0.43;0.43;;;;;;;4.03;65.17;94550.97;5112566;28;20055;-47
2021/03/30 00:49:16;;;;;;;0.30;0.30;;;;;;;3.83;65.73;94561.91;5111152;28;20023;-49
2021/03/30 00:51:43;;;;;;;0.30;0.30;;;;;;;3.62;66.53;94566.59;5112233;27;20593;-49
2021/03/30 00:54:08;;;;;;;0.20;0.20;;;;;;;3.46;66.76;94558.19;5112663;28;20043;-47
2021/03/30 00:56:34;;;;;;;0.20;0.20;;;;;;;3.56;66.40;94560.31;5112248;28;20028;-47
2021/03/30 00:59:01;;;;;;;0.77;0.77;;;;;;;3.49;66.37;94559.97;5112015;28;20035;-45
2021/03/30 01:01:26;;;;;;;1.17;0.55;;;;;;;3.32;66.57;94559.75;5111575;28;20020;-44
2021/03/30 01:03:51;;;;;;;0.28;0.28;;;;;;;3.29;67.40;94549.75;5113095;28;20030;-44
2021/03/30 01:06:17;;;;;;;0.40;0.40;;;;;;;3.43;67.31;94537.31;5112876;28;20034;-44
2021/03/30 01:08:42;;;;;;;0.85;0.85;;;;;;;3.38;68.14;94565.28;5112912;28;20468;-45
2021/03/30 01:11:26;;;;;;;0.98;0.85;;;;;;;3.35;67.34;94574.41;5112890;28;20468;-44
2021/03/30 01:14:13;;;;;;;1.02;1.02;;;;;;;3.32;67.88;94562.47;5113032;28;20392;-45
2021/03/30 01:16:48;;;;;;;1.50;1.40;;;;;;;3.25;67.36;94567.59;5112097;28;20023;-46
2021/03/30 01:20:14;;;;;;;2.97;1.88;;;;;;;3.12;67.56;94565.16;5111603;28;20031;-46
2021/03/30 01:23:19;;;;;;;0.50;0.50;;;;;;;2.98;68.08;94574.13;5110531;28;20047;-44
2021/03/30 01:26:00;;;;;;;0.75;0.75;;;;;;;2.54;68.71;94549.59;5112758;28;20495;-45
2021/03/30 01:28:44;;;;;;;3.45;1.67;;;;;;;2.64;69.33;94567.34;5111153;28;20034;-45
2021/03/30 01:31:10;;;;;;;0.50;0.50;;;;;;;2.39;69.78;94564.44;5112423;28;20034;-44
2021/03/30 01:33:38;;;;;;;0.70;0.70;;;;;;;2.27;70.36;94568.94;5111339;28;20027;-45
2021/03/30 01:36:06;;;;;;;0.73;0.73;;;;;;;2.29;69.91;94561.06;5111385;28;20106;-44
2021/03/30 01:38:31;;;;;;;0.50;0.50;;;;;;;2.26;69.77;94561.97;5111312;28;20081;-45
2021/03/30 01:40:57;;;;;;;0.30;0.30;;;;;;;2.32;69.91;94543.03;5111426;28;20012;-46
2021/03/30 01:43:25;;;;;;;1.17;0.75;;;;;;;2.30;69.48;94562.53;5112288;28;20066;-45
2021/03/30 01:45:55;;;;;;;0.20;0.20;;;;;;;2.51;68.40;94557.97;5112331;28;20028;-47
2021/03/30 01:48:22;;;;;;;0.32;0.32;;;;;;;2.40;68.70;94561.25;5111015;28;20106;-48
2021/03/30 01:50:48;;;;;;;0.40;0.40;;;;;;;2.28;69.74;94551.38;5112052;28;20023;-44
2021/03/30 01:53:15;;;;;;;0.20;0.20;;;;;;;2.25;69.60;94560.50;5112387;28;20030;-44
2021/03/30 01:55:41;;;;;;;1.75;0.82;;;;;;;2.35;69.55;94561.91;5111031;28;20081;-46
2021/03/30 01:58:07;;;;;;;0.30;0.30;;;;;;;2.55;68.97;94547.63;5111036;28;20416;-48
2021/03/30 02:00:34;;;;;;;0.70;0.70;;;;;;;2.32;68.73;94553.91;5110892;28;20034;-45
2021/03/30 02:03:00;;;;;;;0.90;0.70;;;;;;;2.09;69.28;94556.22;5110773;28;20118;-46
2021/03/30 02:05:26;;;;;;;0.20;0.20;;;;;;;2.09;69.56;94552.75;5110865;28;20173;-45
2021/03/30 02:07:54;;;;;;;0.73;0.73;;;;;;;2.18;69.00;94547.22;5111962;28;20161;-50
2021/03/30 02:13:00;;;;;;;0.45;0.45;;;;;;;1.82;69.62;94551.00;5111852;28;20023;-45
2021/03/30 02:15:26;;;;;;;0.85;0.85;;;;;;;1.53;71.08;94548.19;5106698;28;20020;-45
2021/03/30 02:18:05;;;;;;;1.02;1.02;;;;;;;1.76;70.82;94549.38;5099867;28;20056;-45
2021/03/30 02:20:30;;;;;;;0.20;0.20;;;;;;;1.97;70.24;94543.59;5099657;28;20049;-50
2021/03/30 02:23:03;;;;;;;0.40;0.40;;;;;;;2.10;69.39;94546.81;5100809;28;20036;-52
2021/03/30 02:25:30;;;;;;;2.00;1.80;;;;;;;2.19;68.85;94543.25;5100868;28;20028;-47
2021/03/30 02:28:09;;;;;;;0.52;0.52;;;;;;;2.16;69.33;94552.41;5103267;28;20047;-45
2021/03/30 02:30:35;;;;;;;1.40;1.30;;;;;;;2.21;69.13;94547.03;5104363;28;20019;-46
2021/03/30 02:33:01;;;;;;;0.57;0.57;;;;;;;2.01;68.85;94546.16;5103023;28;20051;-47
2021/03/30 02:35:27;;;;;;;0.63;0.50;;;;;;;1.80;69.82;94549.97;5108793;28;20062;-47
2021/03/30 02:37:53;;;;;;;0.30;0.30;;;;;;;1.78;69.51;94549.66;5114749;28;20051;-47
2021/03/30 02:40:21;;;;;;;0.40;0.40;;;;;;;2.04;69.37;94558.84;5114596;28;20494;-46
2021/03/30 02:42:47;;;;;;;0.20;0.20;;;;;;;1.66;69.42;94545.97;5114739;28;20016;-51
2021/03/30 02:45:15;;;;;;;0.40;0.40;;;;;;;1.83;70.26;94555.22;5115759;28;20034;-45
2021/03/30 02:47:42;;;;;;;0.40;0.40;;;;;;;1.83;69.82;94557.94;5114566;28;20415;-44
2021/03/30 02:52:44;;;;;;;0.65;0.65;;;;;;;1.92;69.34;94559.84;1477716;26;20038;-65
2021/03/30 02:55:10;;;;;;;1.60;1.55;;;;;;;2.02;69.24;94555.81;5028791;28;20196;-64
2021/03/30 02:57:41;;;;;;;0.50;0.50;;;;;;;1.83;69.37;94566.13;5035018;28;20100;-64
2021/03/30 03:00:11;;;;;;;0.50;0.50;;;;;;;1.78;69.21;94563.28;5034815;28;20475;-65
2021/03/30 03:02:36;;;;;;;0.55;0.50;;;;;;;1.73;68.98;94567.41;5033894;28;20022;-65
2021/03/30 03:05:02;;;;;;;0.40;0.40;;;;;;;1.49;70.11;94561.22;5033840;28;20101;-65
2021/03/30 03:07:28;;;;;;;0.20;0.20;;;;;;;1.63;69.84;94568.69;5034511;28;20481;-65
2021/03/30 03:09:54;;;;;;;0.20;0.20;;;;;;;1.63;69.88;94571.41;5017193;28;20017;-65
2021/03/30 03:12:21;;;;;;;0.25;0.22;;;;;;;1.63;69.99;94567.91;5017194;28;20486;-65
2021/03/30 03:14:48;;;;;;;0.30;0.30;;;;;;;1.59;69.81;94562.66;5034486;28;20025;-65
2021/03/30 03:17:13;;;;;;;0.25;0.25;;;;;;;1.76;69.66;94571.91;5034530;28;20499;-65
2021/03/30 03:19:39;;;;;;;1.02;1.02;;;;;;;1.44;69.77;94576.22;5017024;28;20056;-65
2021/03/30 03:22:05;;;;;;;0.30;0.30;;;;;;;1.33;70.43;94583.38;5017005;28;20048;-64
2021/03/30 03:24:30;;;;;;;0.30;0.30;;;;;;;1.23;70.58;94577.25;5034664;28;20029;-65
2021/03/30 03:26:56;;;;;;;0.63;0.63;;;;;;;1.30;70.84;94590.47;5034212;28;20032;-65
2021/03/30 03:29:22;;;;;;;0.30;0.30;;;;;;;1.24;70.85;94581.44;5034463;28;20026;-64
2021/03/30 03:31:48;;;;;;;0.20;0.20;;;;;;;1.18;71.04;94591.47;5033953;28;20422;-65
2021/03/30 03:34:15;;;;;;;0.20;0.20;;;;;;;1.05;70.59;94584.72;5034072;28;20100;-64
2021/03/30 03:36:42;;;;;;;1.17;0.47;;;;;;;0.91;71.86;94583.41;5033199;28;20502;-65
2021/03/30 03:39:13;;;;;;;1.15;1.13;;;;;;;1.04;71.79;94580.50;5032732;28;20037;-64
2021/03/30 03:41:39;;;;;;;0.75;0.75;;;;;;;0.91;71.97;94583.41;5034003;28;20026;-65
2021/03/30 03:44:05;;;;;;;0.40;0.40;;;;;;;0.85;72.66;94584.47;5033914;28;20024;-64
2021/03/30 03:46:31;;;;;;;0.22;0.22;;;;;;;0.96;72.37;94590.19;5033968;28;20025;-65
2021/03/30 03:48:56;;;;;;;0.73;0.73;;;;;;;0.78;72.17;94588.28;5034245;28;20021;-64
2021/03/30 03:51:23;;;;;;;6.03;1.15;;;;;;;0.59;72.20;94598.44;5033858;28;20021;-64
2021/03/30 03:53:51;;;;;;;1.25;1.20;;;;;;;0.72;72.16;94592.81;5029409;28;20046;-64
2021/03/30 03:56:22;;;;;;;0.30;0.30;;;;;;;0.70;72.37;94589.81;5012947;28;20064;-66
2021/03/30 03:58:53;;;;;;;0.63;0.63;;;;;;;0.64;72.47;94594.38;5012798;28;20483;-66
2021/03/30 04:01:29;;;;;;;1.05;1.05;;;;;;;0.70;73.15;94601.44;5013183;28;20025;-66
2021/03/30 04:04:00;;;;;;;0.57;0.57;;;;;;;0.60;73.57;94588.34;5012801;28;20491;-66
2021/03/30 04:06:41;;;;;;;0.20;0.20;;;;;;;0.52;74.15;94595.31;5013052;28;20052;-66
2021/03/30 04:09:09;;;;;;;0.52;0.52;;;;;;;0.59;74.03;94603.13;5012725;28;20033;-66
2021/03/30 04:11:35;;;;;;;1.42;1.38;;;;;;;0.60;72.70;94601.94;5012728;28;20144;-66
2021/03/30 04:14:00;;;;;;;1.17;1.17;;;;;;;0.74;72.81;94602.03;5012597;28;20253;-66
2021/03/30 04:16:33;;;;;;;3.13;2.72;;;;;;;0.66;73.43;94590.00;5013540;28;20101;-66
2021/03/30 04:18:58;;;;;;;1.23;1.20;;;;;;;0.77;73.05;94592.22;5012430;28;20022;-66
2021/03/30 04:21:30;;;;;;;8.05;3.63;;;;;;;1.03;72.49;94598.00;5013905;28;20076;-66
2021/03/30 04:23:57;;;;;;;2.35;2.15;;;;;;;0.91;71.74;94588.09;5012338;28;20024;-64
2021/03/30 04:26:23;;;;;;;4.20;3.95;;;;;;;0.89;71.35;94576.94;5013469;28;20021;-64
2021/03/30 04:28:48;;;;;;;2.15;2.05;;;;;;;0.94;70.86;94593.38;5013389;28;20469;-64
2021/03/30 04:31:14;;;;;;;2.13;2.00;;;;;;;0.76;71.46;94587.97;5012871;28;20018;-64
2021/03/30 04:33:39;;;;;;;1.60;0.80;;;;;;;0.82;70.67;94591.59;5013201;28;20026;-64
2021/03/30 04:36:05;;;;;;;0.43;0.43;;;;;;;1.01;70.19;94581.41;5012927;28;20028;-64
2021/03/30 04:38:30;;;;;;;0.75;0.75;;;;;;;0.96;70.80;94585.50;5013096;28;20029;-64
2021/03/30 04:40:56;;;;;;;2.35;2.25;;;;;;;1.13;70.47;94589.34;5011464;28;20498;-64
2021/03/30 04:43:22;;;;;;;1.48;1.38;;;;;;;1.07;70.27;94585.00;5012879;28;20087;-64
2021/03/30 04:45:47;;;;;;;11.27;3.15;;;;;;;0.96;70.63;94587.47;5009622;28;20030;-66
2021/03/30 04:48:13;;;;;;;1.75;1.60;;;;;;;0.95;71.42;94584.00;5005413;28;20719;-63
2021/03/30 04:50:39;;;;;;;1.17;1.17;;;;;;;1.16;71.10;94584.97;4998533;28;20389;-65
2021/03/30 04:53:05;;;;;;;5.78;3.17;;;;;;;1.04;70.12;94586.66;4999769;28;20049;-65
2021/03/30 04:55:30;;;;;;;3.05;1.42;;;;;;;1.11;70.02;94588.31;5017853;28;20164;-65
2021/03/30 04:57:56;;;;;;;1.27;1.27;;;;;;;1.29;70.56;94596.41;5031591;28;20037;-66
2021/03/30 05:00:22;;;;;;;2.83;2.47;;;;;;;1.28;70.86;94592.91;5031317;28;20496;-67
2021/03/30 05:02:47;;;;;;;1.90;1.80;;;;;;;1.33;71.17;94599.69;5031579;28;20025;-67
2021/03/30 05:05:13;;;;;;;2.08;1.98;;;;;;;1.58;70.26;94595.78;5030460;28;20087;-67
2021/03/30 05:07:39;;;;;;;2.22;2.08;;;;;;;1.70;69.63;94595.56;5031433;28;20021;-65
2021/03/30 05:10:07;;;;;;;2.63;2.53;;;;;;;1.86;69.55;94597.13;5031319;28;20108;-65
2021/03/30 05:12:33;;;;;;;1.08;1.05;;;;;;;1.58;70.25;94602.00;5031333;28;20087;-65
2021/03/30 05:14:58;;;;;;;1.75;1.65;;;;;;;1.69;69.96;94596.75;5030977;28;20021;-66
2021/03/30 05:17:24;;;;;;;1.70;1.65;;;;;;;1.81;69.72;94597.75;5032955;28;20080;-67
2021/03/30 05:19:49;;;;;;;2.67;2.58;;;;;;;1.86;70.24;94602.56;5030481;28;20030;-67
2021/03/30 05:22:15;;;;;;;7.82;4.88;;;;;;;2.11;69.20;94612.97;5013527;28;20034;-67
2021/03/30 05:24:40;;;;;;;1.67;1.58;;;;;;;2.25;68.37;94598.63;5031192;28;20025;-66
2021/03/30 05:27:07;;;;;;;3.40;3.10;;;;;;;2.28;69.41;94603.13;5027040;28;20025;-65
2021/03/30 05:29:42;;;;;;;3.97;3.35;;;;;;;2.36;69.17;94609.72;5025070;28;20025;-67
2021/03/30 05:32:12;;;;;;;1.83;1.83;;;;;;;2.49;68.58;94610.22;5026720;28;20029;-66
2021/03/30 05:34:38;;;;;;;1.33;1.23;;;;;;;2.66;68.87;94608.56;5021860;28;20120;-66
2021/03/30 05:37:04;;;;;;;1.95;1.85;;;;;;;2.47;69.66;94601.03;5029834;28;20155;-66
2021/03/30 05:39:29;;;;;;;4.47;2.13;;;;;;;2.76;69.29;94612.69;5031416;28;20507;-65
2021/03/30 05:41:55;;;;;;;2.42;2.25;;;;;;;2.67;70.25;94614.75;5030270;28;20040;-66
2021/03/30 05:44:20;;;;;;;1.08;1.08;;;;;;;3.20;69.32;94614.63;5009745;28;20535;-66
2021/03/30 05:46:54;;;;;;;2.90;2.70;;;;;;;3.72;68.18;94602.75;5030469;28;20029;-65
2021/03/30 05:49:20;;;;;;;0.90;0.90;;;;;;;4.22;66.94;94609.56;5013436;28;20033;-65
2021/03/30 05:51:46;;;;;;;2.28;2.13;;;;;;;4.91;65.61;94616.03;5011921;28;20017;-66
2021/03/30 05:54:11;;;;;;;1.40;1.40;;;;;;;5.98;61.96;94617.81;5028300;28;20053;-66
2021/03/30 05:56:40;;;;;;;1.65;1.55;;;;;;;6.71;59.04;94614.09;5012295;28;20022;-65
2021/03/30 05:59:05;;;;;;;3.40;3.07;;;;;;;6.66;57.90;94616.84;5029046;28;20495;-66
2021/03/30 06:01:31;;;;;;;1.35;1.25;;;;;;;6.71;58.39;94619.59;5026281;28;20024;-66
2021/03/30 06:04:01;;;;;;;1.58;1.48;;;;;;;7.20;57.84;94623.69;5011836;28;20083;-67
2021/03/30 06:06:27;;;;;;;4.30;2.50;;;;;;;7.65;57.02;94616.16;5029511;28;20617;-67
2021/03/30 06:08:53;;;;;;;1.33;1.23;;;;;;;7.91;55.44;94624.13;5029039;28;20081;-66
2021/03/30 06:11:18;;;;;;;0.32;0.32;;;;;;;8.37;55.02;94616.78;5029477;28;20112;-65
2021/03/30 06:13:46;;;;;;;1.08;1.08;;;;;;;9.13;53.81;94607.88;5029580;28;20017;-66
2021/03/30 06:16:32;;;;;;;1.58;1.48;;;;;;;10.16;50.23;94609.50;5029452;28;20021;-63
2021/03/30 06:19:03;;;;;;;0.68;0.68;;;;;;;11.22;47.10;94622.72;5029147;28;20036;-63
2021/03/30 06:21:28;;;;;;;3.22;2.10;;;;;;;12.35;44.44;94613.56;5030194;28;20132;-62
2021/03/30 06:23:57;;;;;;;0.82;0.82;;;;;;;13.39;40.87;94609.88;5012195;28;20084;-63
2021/03/30 06:26:27;;;;;;;1.80;1.52;;;;;;;14.18;38.61;94609.47;5030095;28;20025;-62
2021/03/30 06:28:53;;;;;;;0.60;0.60;;;;;;;14.78;36.40;94612.66;5033460;28;20040;-64
2021/03/30 06:31:19;;;;;;;0.40;0.40;;;;;;;15.08;34.97;94606.47;5028421;28;20025;-63
2021/03/30 06:33:53;;;;;;;0.45;0.45;;;;;;;15.34;32.96;94614.56;5029997;28;20028;-64
2021/03/30 06:36:28;;;;;;;2.05;1.88;;;;;;;16.04;33.16;94611.34;5028936;28;20056;-64
2021/03/30 06:39:00;;;;;;;2.55;1.92;;;;;;;16.58;30.42;94605.97;5030037;28;20032;-64
2021/03/30 06:41:50;;;;;;;0.85;0.82;;;;;;;17.38;29.48;94614.44;5029317;28;20033;-64
2021/03/30 06:44:30;;;;;;;0.75;0.75;;;;;;;18.16;28.36;94612.84;5029908;28;20037;-64
2021/03/30 06:47:04;;;;;;;0.70;0.70;;;;;;;18.82;27.07;94612.06;5029975;28;20029;-64
2021/03/30 06:49:32;;;;;;;0.98;0.73;;;;;;;19.42;26.33;94605.06;5029882;28;20033;-65
2021/03/30 06:51:58;;;;;;;1.10;0.65;;;;;;;19.95;25.93;94614.78;5029052;28;20425;-65
2021/03/30 06:54:24;;;;;;;1.63;1.52;;;;;;;20.68;24.30;94621.16;5029240;28;20053;-65
2021/03/30 06:56:52;;;;;;;0.82;0.82;;;;;;;21.39;24.06;94624.31;5029562;28;20033;-64
2021/03/30 06:59:19;;;;;;;3.53;3.22;;;;;;;21.42;22.39;94618.25;5029867;28;20025;-64
2021/03/30 07:01:52;;;;;;;0.60;0.60;;;;;;;21.70;22.92;94625.91;5028935;28;20029;-64
2021/03/30 07:04:18;;;;;;;0.77;0.77;;;;;;;21.74;23.07;94620.56;5028996;28;20048;-64
2021/03/30 07:06:54;;;;;;;2.25;1.13;;;;;;;21.72;23.37;94622.53;5029031;28;20029;-64
2021/03/30 07:09:21;;;;;;;2.33;1.73;;;;;;;21.93;23.45;94627.53;5029255;28;20148;-64
2021/03/30 07:11:47;;;;;;;2.30;1.15;;;;;;;22.27;22.79;94621.47;5028563;28;20461;-64
2021/03/30 07:14:12;;;;;;;0.82;0.75;;;;;;;22.67;21.60;94615.84;5030805;28;20033;-64
2021/03/30 07:16:55;;;;;;;2.65;0.88;;;;;;;22.72;19.66;94623.22;5031483;28;20021;-65
2021/03/30 07:19:25;;;;;;;0.63;0.63;;;;;;;23.31;20.28;94610.94;5014220;28;20049;-65
2021/03/30 07:22:04;;;;;;;0.77;0.77;;;;;;;23.80;19.37;94618.38;5025449;28;20044;-65
2021/03/30 07:25:04;;;;;;;2.15;1.42;;;;;;;23.97;19.38;94625.78;5030678;28;20031;-64
2021/03/30 07:27:31;;;;;;;1.48;1.35;;;;;;;23.87;19.21;94616.69;5031230;28;20029;-65
2021/03/30 07:29:59;;;;;;;0.88;0.88;;;;;;;23.99;18.89;94609.75;5012942;28;20036;-65
2021/03/30 07:32:45;;;;;;;1.60;1.50;;;;;;;23.68;19.35;94614.06;5030698;28;20056;-65
2021/03/30 07:35:18;;;;;;;1.08;0.98;;;;;;;23.83;19.21;94616.44;4995106;28;20038;-65
2021/03/30 07:37:46;;;;;;;3.40;2.10;;;;;;;25.04;18.65;94613.31;5032496;28;20037;-65
2021/03/30 07:40:14;;;;;;;0.63;0.63;;;;;;;25.53;17.63;94611.25;5032894;28;20033;-65
2021/03/30 07:42:41;;;;;;;0.82;0.82;;;;;;;25.70;17.26;94612.91;5032227;28;20091;-65
2021/03/30 07:45:09;;;;;;;2.40;1.33;;;;;;;25.47;17.12;94616.53;5014279;28;20036;-65
2021/03/30 07:47:36;;;;;;;1.98;1.05;;;;;;;25.46;17.37;94613.00;5031655;28;20025;-65
2021/03/30 07:50:04;;;;;;;0.40;0.40;;;;;;;25.74;17.59;94618.78;5032065;28;20121;-65
2021/03/30 07:52:38;;;;;;;0.82;0.82;;;;;;;26.27;17.48;94617.50;5032247;28;20034;-65
2021/03/30 07:55:17;;;;;;;1.27;1.15;;;;;;;26.41;16.70;94615.44;5031846;28;20061;-66
2021/03/30 07:58:02;;;;;;;0.65;0.65;;;;;;;26.03;16.65;94616.16;5032087;28;20116;-65
2021/03/30 08:00:31;;;;;;;0.57;0.50;;;;;;;26.37;16.12;94620.91;5032109;28;20025;-66
2021/03/30 08:03:23;;;;;;;0.50;0.50;;;;;;;25.87;16.84;94621.66;5032224;28;20037;-65
2021/03/30 08:06:04;;;;;;;1.35;0.93;;;;;;;25.72;15.59;94619.41;5023250;28;20525;-65
2021/03/30 08:08:30;;;;;;;0.98;0.73;;;;;;;24.66;16.40;94619.50;5031378;28;20029;-64
2021/03/30 08:10:56;;;;;;;1.48;1.25;;;;;;;24.64;18.34;94616.56;5031484;28;20037;-65
2021/03/30 08:13:22;;;;;;;1.00;0.98;;;;;;;25.56;17.43;94633.38;5031466;28;20068;-66
2021/03/30 08:16:01;;;;;;;1.58;1.25;;;;;;;25.81;14.95;94620.59;5030890;28;20033;-66
2021/03/30 08:18:36;;;;;;;1.38;1.15;;;;;;;26.23;15.67;94625.78;5031753;28;20456;-65
2021/03/30 08:21:09;;;;;;;0.80;0.77;;;;;;;26.24;16.38;94619.50;5031856;28;20029;-65
2021/03/30 08:24:04;;;;;;;1.17;1.08;;;;;;;25.83;17.31;94615.03;5031969;28;20025;-66
2021/03/30 08:26:30;;;;;;;1.23;1.13;;;;;;;26.06;16.13;94612.81;5019179;28;20057;-66
2021/03/30 08:29:09;;;;;;;0.88;0.70;;;;;;;26.30;16.37;94610.59;5031168;28;20083;-65
2021/03/30 08:31:40;;;;;;;2.20;2.05;;;;;;;25.33;16.88;94618.53;5011892;28;20033;-65
2021/03/30 08:34:12;;;;;;;1.67;1.27;;;;;;;22.84;19.20;94612.03;5007234;28;20110;-64
2021/03/30 08:36:43;;;;;;;2.60;1.17;;;;;;;22.01;20.22;94617.56;5031362;28;20561;-64
2021/03/30 08:39:10;;;;;;;2.42;0.73;;;;;;;21.98;20.36;94618.03;5031164;28;20029;-64
2021/03/30 08:41:42;;;;;;;1.00;0.90;;;;;;;23.13;21.31;94606.94;5031571;28;20036;-65
2021/03/30 08:44:22;;;;;;;2.35;0.98;;;;;;;24.77;18.36;94607.50;5031446;28;20025;-64
2021/03/30 08:46:53;;;;;;;2.33;1.50;;;;;;;25.47;17.33;94614.47;5031488;28;20045;-65
2021/03/30 08:49:27;;;;;;;0.68;0.68;;;;;;;24.45;17.43;94613.97;5024452;28;20096;-65
2021/03/30 08:52:13;;;;;;;3.97;1.02;;;;;;;24.54;16.68;94611.03;5011642;28;20029;-65
2021/03/30 08:54:44;;;;;;;0.95;0.90;;;;;;;23.86;18.33;94615.97;5020718;28;20080;-66
2021/03/30 08:57:11;;;;;;;1.50;1.40;;;;;;;23.67;18.05;94602.03;5032495;28;20037;-67
2021/03/30 08:59:38;;;;;;;1.58;1.00;;;;;;;22.82;20.00;94611.91;5031200;28;20029;-66
2021/03/30 09:02:06;;;;;;;0.75;0.73;;;;;;;23.55;19.20;94621.00;5031664;28;20049;-66
2021/03/30 09:04:43;;;;;;;0.80;0.80;;;;;;;23.34;18.85;94615.41;5032363;28;20036;-66
2021/03/30 09:07:12;;;;;;;0.50;0.50;;;;;;;23.26;19.70;94612.75;5032091;28;20040;-65
2021/03/30 09:09:38;;;;;;;0.65;0.55;;;;;;;23.90;19.26;94619.03;5031520;28;20025;-65
2021/03/30 09:12:06;;;;;;;2.03;0.85;;;;;;;24.60;17.21;94613.50;5031835;28;20021;-65
2021/03/30 09:14:32;;;;;;;0.87;0.87;;;;;;;24.45;15.47;94611.16;5031928;28;20498;-65
2021/03/30 09:17:06;;;;;;;2.72;1.77;;;;;;;25.28;17.71;94614.75;5031632;28;20025;-65
2021/03/30 09:19:38;;;;;;;1.60;1.48;;;;;;;26.12;17.64;94615.25;5009102;28;20022;-65
2021/03/30 09:22:14;;;;;;;0.32;0.28;;;;;;;26.14;16.25;94607.63;5010673;28;20014;-65
2021/03/30 09:25:23;;;;;;;1.15;0.98;;;;;;;26.75;14.85;94613.72;5011297;28;20053;-65
2021/03/30 09:27:48;;;;;;;2.33;0.45;;;;;;;27.32;15.38;94597.50;5011197;28;20026;-65
2021/03/30 09:30:16;;;;;;;1.00;0.90;;;;;;;27.15;14.14;94595.97;5019975;28;20032;-66
2021/03/30 09:32:43;;;;;;;0.93;0.80;;;;;;;24.72;14.32;94606.47;5030287;28;20087;-65
2021/03/30 09:35:09;;;;;;;3.13;0.82;;;;;;;24.73;15.77;94601.56;5013092;28;20029;-65
2021/03/30 09:37:40;;;;;;;1.25;0.80;;;;;;;25.28;17.20;94602.69;5029778;28;20031;-65
2021/03/30 09:40:08;;;;;;;0.77;0.38;;;;;;;25.98;16.52;94603.88;5027910;28;20022;-64
2021/03/30 09:42:35;;;;;;;0.80;0.80;;;;;;;26.19;17.97;94600.81;5024043;28;20106;-65
2021/03/30 09:45:00;;;;;;;1.35;1.00;;;;;;;26.93;16.53;94587.06;5006763;28;20099;-65
2021/03/30 09:47:27;;;;;;;0.70;0.60;;;;;;;26.43;14.51;94578.72;5029360;28;21418;-66
2021/03/30 09:49:53;;;;;;;2.47;0.68;;;;;;;24.56;15.13;94582.19;5027807;28;20517;-65
2021/03/30 09:52:19;;;;;;;0.55;0.52;;;;;;;24.66;18.85;94585.59;5028913;28;20018;-66
2021/03/30 09:54:44;;;;;;;0.80;0.73;;;;;;;25.33;16.76;94567.66;5030388;28;20032;-65
2021/03/30 09:57:13;;;;;;;0.70;0.68;;;;;;;24.79;18.18;94576.53;5030646;28;20022;-65
2021/03/30 09:59:42;;;;;;;0.85;0.80;;;;;;;25.26;17.56;94577.88;4995115;28;20036;-65
2021/03/30 10:02:08;;;;;;;1.38;1.13;;;;;;;25.38;16.04;94572.91;5029657;28;20029;-64
2021/03/30 10:04:34;;;;;;;0.90;0.85;;;;;;;25.50;16.03;94579.28;5012426;28;20029;-65
2021/03/30 10:07:12;;;;;;;0.73;0.73;;;;;;;25.86;15.94;94577.75;5029962;28;20098;-65
2021/03/30 10:10:09;;;;;;;0.88;0.57;;;;;;;25.98;15.63;94572.03;5029847;28;20083;-64
2021/03/30 10:12:57;;;;;;;4.40;1.83;;;;;;;26.21;14.88;94578.28;5018647;28;20049;-65
2021/03/30 10:15:38;;;;;;;1.05;1.05;;;;;;;26.66;15.00;94570.03;5029774;28;20048;-65
2021/03/30 10:18:05;;;;;;;1.23;0.80;;;;;;;27.41;16.69;94556.84;5012394;28;20410;-65
2021/03/30 10:20:31;;;;;;;0.85;0.75;;;;;;;27.45;15.21;94559.88;5029873;28;20025;-64
2021/03/30 10:22:57;;;;;;;0.85;0.77;;;;;;;27.89;14.57;94547.84;5029248;28;20033;-65
2021/03/30 10:25:28;;;;;;;1.13;1.02;;;;;;;27.22;15.19;94562.97;5029535;28;20032;-65
2021/03/30 10:27:58;;;;;;;0.52;0.52;;;;;;;27.10;14.01;94554.59;5029694;28;20458;-65
2021/03/30 10:30:30;;;;;;;1.98;1.88;;;;;;;26.98;16.04;94546.19;5027437;28;20033;-66
2021/03/30 10:32:57;;;;;;;1.23;0.80;;;;;;;26.27;15.46;94550.28;5017351;28;20037;-65
2021/03/30 10:35:23;;;;;;;0.63;0.63;;;;;;;25.44;17.30;94552.75;5015869;28;20037;-66
2021/03/30 10:37:48;;;;;;;0.50;0.50;;;;;;;25.25;16.71;94542.47;5013028;28;20033;-65
2021/03/30 10:40:14;;;;;;;0.88;0.88;;;;;;;25.44;17.95;94545.03;5029483;28;20041;-66
2021/03/30 10:42:41;;;;;;;2.67;1.17;;;;;;;25.07;16.79;94538.63;5031490;28;20029;-65
2021/03/30 10:45:11;;;;;;;1.45;0.95;;;;;;;24.32;17.63;94549.66;5031099;28;20030;-66
2021/03/30 10:47:39;;;;;;;2.67;1.25;;;;;;;24.29;16.96;94548.06;5032072;28;20028;-65
2021/03/30 10:50:11;;;;;;;0.70;0.70;;;;;;;24.95;17.46;94548.50;5034807;28;20108;-66
2021/03/30 10:52:37;;;;;;;1.35;0.55;;;;;;;24.56;14.69;94537.00;5034603;28;20103;-66
2021/03/30 10:55:07;;;;;;;1.27;1.17;;;;;;;24.52;16.92;94533.91;5021959;28;20037;-66
2021/03/30 10:57:38;;;;;;;1.27;1.17;;;;;;;24.72;17.01;94532.31;5031229;28;20033;-64
2021/03/30 11:00:07;;;;;;;0.82;0.82;;;;;;;24.68;16.42;94532.81;5018065;28;20029;-65
2021/03/30 11:02:32;;;;;;;0.30;0.30;;;;;;;24.68;16.28;94532.06;5034938;28;20040;-66
2021/03/30 11:04:59;;;;;;;0.25;0.22;;;;;;;25.62;15.83;94524.75;5034322;28;20033;-66
2021/03/30 11:07:24;;;;;;;0.50;0.50;;;;;;;25.81;14.62;94530.06;5034239;28;20108;-67
2021/03/30 11:09:50;;;;;;;2.08;1.20;;;;;;;24.56;14.28;94494.66;5034592;28;20116;-66
2021/03/30 11:12:15;;;;;;;0.52;0.52;;;;;;;24.65;15.78;94528.38;5033357;28;20084;-66
2021/03/30 11:14:41;;;;;;;0.65;0.30;;;;;;;21.87;16.39;94530.16;5034622;28;20030;-67
2021/03/30 11:17:06;;;;;;;0.10;0.10;;;;;;;21.77;16.75;94501.31;5017242;28;20091;-67
2021/03/30 11:19:32;;;;;;;0.93;0.93;;;;;;;20.09;17.83;94523.38;5034420;28;20029;-66
2021/03/30 11:21:58;;;;;;;0.40;0.40;;;;;;;18.78;19.57;94516.63;5034395;28;20028;-64
2021/03/30 11:24:25;;;;;;;0.43;0.43;;;;;;;18.98;20.67;94525.16;5034454;28;20048;-65
2021/03/30 11:26:53;;;;;;;0.20;0.20;;;;;;;19.32;19.80;94516.66;5034540;28;20103;-65
2021/03/30 11:36:46;;;;;;;0.50;0.50;;;;;;;19.84;19.92;94503.97;5033529;28;20048;-64
2021/03/30 11:39:12;;;;;;;0.95;0.95;;;;;;;20.28;18.97;94501.00;5032384;28;20518;-65
2021/03/30 11:41:38;;;;;;;0.20;0.20;;;;;;;19.73;20.04;94509.41;5032705;28;20056;-65
2021/03/30 11:44:03;;;;;;;0.20;0.20;;;;;;;18.93;19.01;94510.84;5030526;28;20075;-65
2021/03/30 11:46:29;;;;;;;0.25;0.25;;;;;;;18.58;22.36;94503.78;5032107;28;20049;-64
2021/03/30 11:48:55;;;;;;;0.82;0.80;;;;;;;18.57;23.43;94499.53;5033950;28;20113;-64
2021/03/30 11:51:20;;;;;;;0.20;0.20;;;;;;;18.65;20.95;94496.63;5035058;28;20026;-66
2021/03/30 11:53:46;;;;;;;0.75;0.65;;;;;;;18.37;22.60;94478.25;5030615;28;20057;-64
2021/03/30 11:56:12;;;;;;;0.68;0.55;;;;;;;18.83;22.63;94487.66;5029540;28;20538;-64
2021/03/30 11:58:37;;;;;;;3.20;1.35;;;;;;;18.65;22.15;94485.44;5032217;28;20064;-64